^^
Lake Charleston Parkviewx Station Historical Data
Daily Summary for January 22, 2020 Units:  Metric    English   Both
Daily Weekly Monthly Yearly Custom
  High: Low: Average:
Temperature: 15.6 °C 4.6 °C 10.1 °C
Dew Point: 12.7 °C 0.4 °C 6.6 °C
Humidity: 97% 70.4% 80%
Wind Speed: 25.4km/h 2.6km/h 15.4km/h
Wind Gust: 43.5km/h - -
Wind- - NW
Pressure: 1020.5 hPa 1016.1 hPa -
Precipitation: 1.27 mm    
Historical Graphs
 
 
Tabular Data for January 22, 2020
Time Temperature Dew Point Pressure Wind Wind Speed Wind Gust Humidity Rainfall Rate (Hourly) solar
00:04 7.2 °C 2.4 °C 1020.5 hPa NW 18.2 km/h 29 km/h 71.8% 0 mm W/m2
00:09 7.2 °C 2.6 °C 1020.5 hPa NW 16.1 km/h 32.2 km/h 72.5% 0 mm W/m2
00:14 7.2 °C 2.4 °C 1020.5 hPa NW 19 km/h 27.4 km/h 71.7% 0 mm W/m2
00:19 7.1 °C 2.3 °C 1020.2 hPa NW 18.8 km/h 30.6 km/h 71.3% 0 mm W/m2
00:24 7.1 °C 2.4 °C 1020.2 hPa NNW 18 km/h 30.6 km/h 72.3% 0 mm W/m2
00:29 7.1 °C 2.3 °C 1020.2 hPa NW 18.5 km/h 30.6 km/h 72% 0 mm W/m2
00:34 7 °C 2.4 °C 1020.2 hPa NNW 16.6 km/h 30.6 km/h 72.4% 0 mm W/m2
00:39 6.9 °C 2.3 °C 1020.2 hPa NNW 16.3 km/h 29 km/h 72.6% 0 mm W/m2
00:44 6.8 °C 2.1 °C 1019.9 hPa NW 18.5 km/h 27.4 km/h 71.8% 0 mm W/m2
00:49 6.8 °C 2.1 °C 1019.9 hPa NW 14.6 km/h 27.4 km/h 72.1% 0 mm W/m2
00:54 6.8 °C 2.1 °C 1019.9 hPa NW 17.7 km/h 27.4 km/h 72% 0 mm W/m2
00:59 6.7 °C 2.1 °C 1019.9 hPa NNW 15.1 km/h 27.4 km/h 72.5% 0 mm W/m2
01:04 6.7 °C 2.2 °C 1019.9 hPa NW 14.3 km/h 25.7 km/h 72.8% 0 mm W/m2
01:09 6.7 °C 2.1 °C 1019.9 hPa NW 14 km/h 25.7 km/h 72.6% 0 mm W/m2
01:14 6.6 °C 1.9 °C 1019.9 hPa NW 17.5 km/h 27.4 km/h 72.1% 0 mm W/m2
01:19 6.4 °C 1.8 °C 1019.9 hPa NW 16.9 km/h 27.4 km/h 72.5% 0 mm W/m2
01:24 6.3 °C 1.7 °C 1019.9 hPa NW 15.3 km/h 25.7 km/h 72.5% 0 mm W/m2
01:29 6.2 °C 1.8 °C 1019.9 hPa NW 15.8 km/h 27.4 km/h 73.1% 0 mm W/m2
01:34 6.2 °C 1.5 °C 1019.9 hPa NW 18.7 km/h 30.6 km/h 72% 0 mm W/m2
01:39 6.1 °C 1.4 °C 1019.5 hPa NW 16.3 km/h 30.6 km/h 72.1% 0 mm W/m2
01:44 6.1 °C 1.2 °C 1019.5 hPa NW 18.8 km/h 30.6 km/h 71.2% 0 mm W/m2
01:49 5.9 °C 1.1 °C 1019.5 hPa NW 18.7 km/h 30.6 km/h 71.1% 0 mm W/m2
01:54 5.9 °C 1.1 °C 1019.5 hPa NW 21.1 km/h 30.6 km/h 71.2% 0 mm W/m2
01:59 5.9 °C 1 °C 1019.5 hPa NW 19 km/h 30.6 km/h 71.1% 0 mm W/m2
02:04 5.8 °C 0.9 °C 1019.5 hPa NW 20.6 km/h 32.2 km/h 70.9% 0 mm W/m2
02:09 5.8 °C 0.8 °C 1019.5 hPa NNW 19.2 km/h 32.2 km/h 70.5% 0 mm W/m2
02:14 5.8 °C 0.8 °C 1019.5 hPa NNW 17.9 km/h 29 km/h 70.4% 0 mm W/m2
02:19 5.8 °C 0.8 °C 1019.5 hPa NW 17.4 km/h 32.2 km/h 70.7% 0 mm W/m2
02:24 5.8 °C 0.8 °C 1019.5 hPa NW 19.5 km/h 38.6 km/h 70.5% 0 mm W/m2
02:29 5.7 °C 0.8 °C 1019.5 hPa NW 18.5 km/h 38.6 km/h 70.4% 0 mm W/m2
02:34 5.7 °C 0.8 °C 1019.5 hPa NNW 18.5 km/h 38.6 km/h 70.4% 0 mm W/m2
02:39 5.7 °C 0.8 °C 1019.5 hPa NW 18.3 km/h 38.6 km/h 70.8% 0 mm W/m2
02:44 5.7 °C 0.8 °C 1019.2 hPa NNW 17.2 km/h 29 km/h 70.9% 0 mm W/m2
02:49 5.7 °C 0.8 °C 1019.2 hPa NNW 20 km/h 32.2 km/h 70.8% 0 mm W/m2
02:54 5.6 °C 0.7 °C 1019.5 hPa NNW 20.9 km/h 33.8 km/h 70.4% 0 mm W/m2
02:59 5.6 °C 0.7 °C 1019.2 hPa NNW 17.9 km/h 30.6 km/h 70.7% 0 mm W/m2
03:04 5.6 °C 0.8 °C 1019.2 hPa NW 17.5 km/h 33.8 km/h 71.4% 0 mm W/m2
03:09 5.6 °C 0.7 °C 1019.2 hPa NW 18 km/h 29 km/h 70.6% 0 mm W/m2
03:14 5.4 °C 0.6 °C 1019.2 hPa NW 18.3 km/h 30.6 km/h 70.8% 0 mm W/m2
03:19 5.4 °C 0.6 °C 1019.2 hPa NW 17.2 km/h 25.7 km/h 70.9% 0 mm W/m2
03:24 5.4 °C 0.5 °C 1019.2 hPa NW 18.8 km/h 30.6 km/h 70.6% 0 mm W/m2
03:29 5.4 °C 0.6 °C 1019.2 hPa NW 17.7 km/h 27.4 km/h 71.1% 0 mm W/m2
03:34 5.4 °C 0.6 °C 1019.2 hPa NW 16.3 km/h 29 km/h 71.1% 0 mm W/m2
03:39 5.3 °C 0.7 °C 1019.2 hPa NW 18.3 km/h 32.2 km/h 71.8% 0 mm W/m2
03:44 5.3 °C 0.5 °C 1019.2 hPa NW 17.5 km/h 32.2 km/h 71.1% 0 mm W/m2
03:49 5.3 °C 0.7 °C 1019.2 hPa NW 18.8 km/h 33.8 km/h 71.8% 0 mm W/m2
03:54 5.3 °C 0.7 °C 1019.5 hPa NW 18 km/h 37 km/h 71.9% 0 mm W/m2
03:59 5.3 °C 0.6 °C 1019.5 hPa NW 16.1 km/h 37 km/h 71.6% 0 mm W/m2
04:04 5.3 °C 0.7 °C 1019.5 hPa NW 19.3 km/h 37 km/h 72.1% 0 mm W/m2
04:09 5.3 °C 0.6 °C 1019.2 hPa NW 18.3 km/h 37 km/h 71.7% 0 mm W/m2
04:14 5.2 °C 0.7 °C 1019.2 hPa NW 19.8 km/h 35.4 km/h 72% 0 mm W/m2
04:19 5.2 °C 0.4 °C 1019.2 hPa NW 21.1 km/h 33.8 km/h 71.1% 0 mm W/m2
04:24 5.2 °C 0.6 °C 1018.8 hPa NW 18.3 km/h 30.6 km/h 72.2% 0 mm W/m2
04:29 5.2 °C 0.7 °C 1019.2 hPa NNW 15.4 km/h 33.8 km/h 72.8% 0 mm W/m2
04:34 5.2 °C 0.6 °C 1019.2 hPa NW 18 km/h 32.2 km/h 72.2% 0 mm W/m2
04:39 5.2 °C 0.6 °C 1019.2 hPa NW 17.9 km/h 32.2 km/h 72.3% 0 mm W/m2
04:44 5.2 °C 0.7 °C 1019.2 hPa NW 17.7 km/h 32.2 km/h 72.4% 0 mm W/m2
04:49 5.1 °C 0.7 °C 1018.8 hPa NW 18.7 km/h 32.2 km/h 72.7% 0 mm W/m2
04:54 5.1 °C 0.7 °C 1018.8 hPa NW 17.1 km/h 29 km/h 72.7% 0 mm W/m2
04:59 5.1 °C 0.5 °C 1018.8 hPa NW 18.8 km/h 29 km/h 72.2% 0 mm W/m2
05:04 5.1 °C 0.7 °C 1018.8 hPa NW 19.6 km/h 30.6 km/h 73.3% 0 mm W/m2
05:09 5.1 °C 0.7 °C 1018.8 hPa NW 16.9 km/h 30.6 km/h 73.4% 0 mm W/m2
05:14 5 °C 0.7 °C 1018.8 hPa NW 20.6 km/h 30.6 km/h 73.3% 0 mm W/m2
05:19 4.9 °C 0.7 °C 1018.8 hPa NW 19.2 km/h 25.7 km/h 73.6% 0 mm W/m2
05:24 4.9 °C 0.6 °C 1018.8 hPa NW 17.1 km/h 30.6 km/h 73.4% 0 mm W/m2
05:29 4.8 °C 0.7 °C 1018.8 hPa NW 17.1 km/h 27.4 km/h 74% 0 mm W/m2
05:34 4.8 °C 0.6 °C 1018.8 hPa NW 18 km/h 29 km/h 74% 0 mm W/m2
05:39 4.8 °C 0.7 °C 1018.8 hPa NNW 16.1 km/h 29 km/h 74.5% 0 mm W/m2
05:44 4.8 °C 0.7 °C 1018.8 hPa NNW 16.4 km/h 29 km/h 74.9% 0 mm W/m2
05:49 4.8 °C 0.7 °C 1018.8 hPa NW 16.1 km/h 29 km/h 74.6% 0 mm W/m2
05:54 4.8 °C 0.7 °C 1018.8 hPa NW 14.8 km/h 25.7 km/h 74.6% 0 mm W/m2
05:59 4.7 °C 0.7 °C 1019.2 hPa NW 15.1 km/h 25.7 km/h 75.3% 0 mm W/m2
06:04 4.7 °C 0.7 °C 1019.2 hPa NNW 14.8 km/h 25.7 km/h 75.5% 0 mm W/m2
06:09 4.7 °C 0.7 °C 1019.2 hPa NNW 15.9 km/h 27.4 km/h 75.2% 0 mm W/m2
06:14 4.7 °C 0.7 °C 1019.2 hPa NNW 15.8 km/h 27.4 km/h 75.7% 0 mm W/m2
06:19 4.7 °C 0.8 °C 1019.2 hPa NW 17.5 km/h 25.7 km/h 75.8% 0 mm W/m2
06:24 4.7 °C 0.8 °C 1019.2 hPa NNW 15.6 km/h 27.4 km/h 76.1% 0 mm W/m2
06:29 4.7 °C 0.6 °C 1019.2 hPa NW 18.2 km/h 25.7 km/h 75.1% 0 mm W/m2
06:34 4.6 °C 0.6 °C 1019.2 hPa NW 18.5 km/h 27.4 km/h 74.9% 0 mm W/m2
06:39 4.7 °C 0.7 °C 1019.5 hPa NNW 17.1 km/h 25.7 km/h 75.3% 0 mm W/m2
06:44 4.7 °C 0.8 °C 1019.5 hPa NNW 16.7 km/h 25.7 km/h 76.2% 0 mm W/m2
06:49 4.6 °C 0.6 °C 1019.5 hPa NW 17.9 km/h 25.7 km/h 74.9% 0 mm W/m2
06:54 4.6 °C 0.7 °C 1019.5 hPa NW 13.8 km/h 24.1 km/h 75.4% 0 mm W/m2
06:59 4.6 °C 0.8 °C 1019.5 hPa NW 11.1 km/h 24.1 km/h 76.7% 0 mm W/m2
07:04 4.6 °C 0.9 °C 1019.5 hPa NW 13.4 km/h 24.1 km/h 76.8% 0 mm W/m2
07:09 4.7 °C 0.8 °C 1019.5 hPa NNW 13.4 km/h 24.1 km/h 76.3% 0 mm W/m2
07:14 4.7 °C 0.9 °C 1019.9 hPa NNW 15.3 km/h 25.7 km/h 76.9% 0 mm W/m2
07:19 4.7 °C 0.8 °C 1019.5 hPa NW 14.6 km/h 25.7 km/h 76.2% 0 mm W/m2
07:24 4.7 °C 0.9 °C 1019.5 hPa NW 14.5 km/h 25.7 km/h 76.6% 0 mm W/m2
07:29 4.7 °C 0.8 °C 1019.5 hPa NW 15.1 km/h 25.7 km/h 76.2% 0 mm W/m2
07:34 4.7 °C 0.8 °C 1019.5 hPa NW 13.7 km/h 24.1 km/h 76.4% 0 mm W/m2
07:39 4.7 °C 0.7 °C 1019.5 hPa NW 17.2 km/h 30.6 km/h 75.5% 0 mm W/m2
07:44 4.7 °C 0.8 °C 1019.5 hPa NW 13 km/h 22.5 km/h 76.2% 0 mm W/m2
07:49 4.7 °C 1.1 °C 1019.5 hPa NW 12.2 km/h 30.6 km/h 77% 0 mm W/m2
07:54 4.8 °C 1.1 °C 1019.5 hPa NW 14.5 km/h 24.1 km/h 76.9% 0 mm W/m2
07:59 4.9 °C 1.1 °C 1019.5 hPa NW 13 km/h 24.1 km/h 76.5% 0 mm W/m2
08:04 4.9 °C 1.1 °C 1019.5 hPa NW 15 km/h 24.1 km/h 76.5% 0 mm W/m2
08:09 4.9 °C 1.2 °C 1019.2 hPa NW 18.5 km/h 24.1 km/h 76.8% 0 mm W/m2
08:14 4.9 °C 1.2 °C 1019.2 hPa NW 16.7 km/h 27.4 km/h 77% 0 mm W/m2
08:19 5.1 °C 1.2 °C 1019.2 hPa NW 19.2 km/h 32.2 km/h 76.6% 0 mm W/m2
08:24 5.2 °C 1.3 °C 1019.5 hPa NW 21.9 km/h 32.2 km/h 76% 0 mm W/m2
08:29 5.3 °C 1.3 °C 1019.5 hPa NW 20.1 km/h 32.2 km/h 75.7% 0 mm W/m2
08:34 5.5 °C 1.5 °C 1019.5 hPa NW 23.7 km/h 33.8 km/h 75.5% 0 mm W/m2
08:39 5.7 °C 1.7 °C 1019.5 hPa NW 19.3 km/h 35.4 km/h 75.9% 0 mm W/m2
08:44 5.8 °C 1.7 °C 1019.5 hPa NW 23.5 km/h 38.6 km/h 75% 0 mm W/m2
08:49 5.9 °C 2.1 °C 1019.5 hPa NW 21.6 km/h 35.4 km/h 76% 0 mm W/m2
08:54 6.2 °C 2.3 °C 1019.5 hPa NW 22.9 km/h 38.6 km/h 76% 0 mm W/m2
08:59 6.3 °C 2.3 °C 1019.5 hPa NW 24 km/h 37 km/h 75.6% 0 mm W/m2
09:04 6.3 °C 2.4 °C 1019.5 hPa NW 22.4 km/h 37 km/h 75.9% 0 mm W/m2
09:09 6.7 °C 2.9 °C 1019.5 hPa NNW 19.5 km/h 37 km/h 76.7% 0 mm W/m2
09:14 6.8 °C 3.1 °C 1019.5 hPa NW 19.3 km/h 37 km/h 76.4% 0 mm W/m2
09:19 7.1 °C 3.3 °C 1019.2 hPa NNW 17.4 km/h 32.2 km/h 76.7% 0 mm W/m2
09:24 7.2 °C 3.3 °C 1019.2 hPa NW 17.2 km/h 32.2 km/h 76.1% 0 mm W/m2
09:29 7.4 °C 3.6 °C 1019.2 hPa NW 13.5 km/h 25.7 km/h 77% 0 mm W/m2
09:34 7.6 °C 3.7 °C 1018.8 hPa WNW 16.4 km/h 30.6 km/h 76.2% 0 mm W/m2
09:39 7.6 °C 3.6 °C 1018.8 hPa WNW 17.7 km/h 29 km/h 75.5% 0 mm W/m2
09:44 7.7 °C 3.8 °C 1019.2 hPa WNW 16.9 km/h 30.6 km/h 76.7% 0 mm W/m2
09:49 7.9 °C 4.1 °C 1019.2 hPa NW 15.8 km/h 24.1 km/h 76.8% 0 mm W/m2
09:54 8.2 °C 4.3 °C 1019.5 hPa NW 17.2 km/h 27.4 km/h 76.3% 0 mm W/m2
09:59 8.4 °C 4.4 °C 1019.5 hPa NW 15 km/h 25.7 km/h 76.4% 0 mm W/m2
10:04 8.7 °C 4.8 °C 1019.2 hPa NW 16.9 km/h 27.4 km/h 76.5% 0 mm W/m2
10:09 8.8 °C 4.9 °C 1018.8 hPa NW 20.4 km/h 30.6 km/h 76.2% 0 mm W/m2
10:14 8.8 °C 5 °C 1018.8 hPa NW 17.2 km/h 24.1 km/h 76.6% 0 mm W/m2
10:19 9.1 °C 5.2 °C 1018.8 hPa NW 20.9 km/h 32.2 km/h 76.4% 0 mm W/m2
10:24 9.1 °C 5.2 °C 1018.8 hPa NW 19.3 km/h 32.2 km/h 76.6% 0 mm W/m2
10:29 9.2 °C 5.3 °C 1018.8 hPa NW 20.4 km/h 33.8 km/h 76.8% 0 mm W/m2
10:34 9.3 °C 5.6 °C 1018.5 hPa NW 18 km/h 33.8 km/h 77% 0 mm W/m2
10:39 9.6 °C 5.7 °C 1018.5 hPa NW 21.2 km/h 33.8 km/h 76.2% 0 mm W/m2
10:44 9.7 °C 5.6 °C 1018.5 hPa WNW 19 km/h 33.8 km/h 75.6% 0 mm W/m2
10:49 9.7 °C 5.6 °C 1018.5 hPa NW 16.7 km/h 37 km/h 75.8% 0 mm W/m2
10:54 9.8 °C 5.7 °C 1018.5 hPa NW 20 km/h 27.4 km/h 75.6% 0 mm W/m2
10:59 9.8 °C 5.6 °C 1018.2 hPa WNW 20 km/h 37 km/h 75% 0 mm W/m2
11:04 9.8 °C 5.7 °C 1018.2 hPa NW 18 km/h 30.6 km/h 75.1% 0 mm W/m2
11:09 10.1 °C 5.7 °C 1018.2 hPa WNW 19.6 km/h 30.6 km/h 74.2% 0 mm W/m2
11:14 10.3 °C 5.8 °C 1017.8 hPa NW 20.9 km/h 32.2 km/h 73.5% 0 mm W/m2
11:19 10.5 °C 6 °C 1017.8 hPa WNW 18.3 km/h 38.6 km/h 73.5% 0 mm W/m2
11:24 10.7 °C 6.1 °C 1017.8 hPa NW 20.6 km/h 38.6 km/h 73% 0 mm W/m2
11:29 10.8 °C 6.3 °C 1017.8 hPa NW 17.9 km/h 29 km/h 73.1% 0 mm W/m2
11:34 11.1 °C 6.2 °C 1017.5 hPa NW 17.2 km/h 38.6 km/h 72.3% 0 mm W/m2
11:39 11.1 °C 6.4 °C 1017.5 hPa NW 19.8 km/h 29 km/h 72.9% 0 mm W/m2
11:44 11.2 °C 6.4 °C 1017.5 hPa NW 21.9 km/h 32.2 km/h 72.5% 0 mm W/m2
11:49 11.4 °C 6.6 °C 1017.5 hPa WNW 17.7 km/h 30.6 km/h 72.3% 0 mm W/m2
11:54 11.8 °C 6.9 °C 1017.5 hPa NW 19.3 km/h 35.4 km/h 72% 0 mm W/m2
11:59 12.2 °C 7.3 °C 1017.5 hPa NW 17.2 km/h 25.7 km/h 72.1% 0 mm W/m2
12:04 12.4 °C 7.2 °C 1017.5 hPa NW 19.8 km/h 35.4 km/h 70.6% 0 mm W/m2
12:09 12.4 °C 7.3 °C 1017.5 hPa NW 21.7 km/h 32.2 km/h 71.1% 0 mm W/m2
12:14 12.6 °C 7.6 °C 1017.2 hPa NW 17.2 km/h 29 km/h 71.6% 0 mm W/m2
12:19 12.7 °C 7.6 °C 1017.2 hPa NW 21.7 km/h 35.4 km/h 71.1% 0 mm W/m2
12:24 12.6 °C 7.7 °C 1017.2 hPa WNW 23.2 km/h 40.2 km/h 71.9% 0 mm W/m2
12:29 12.4 °C 7.7 °C 1017.2 hPa NW 21.6 km/h 43.5 km/h 72.7% 0 mm W/m2
12:34 12.5 °C 7.9 °C 1016.8 hPa NW 17.2 km/h 35.4 km/h 73.6% 0 mm W/m2
12:39 12.4 °C 7.6 °C 1016.8 hPa WNW 19.6 km/h 43.5 km/h 72.1% 0 mm W/m2
12:44 12.5 °C 7.8 °C 1016.8 hPa WNW 22 km/h 35.4 km/h 72.9% 0 mm W/m2
12:49 12.6 °C 8 °C 1016.8 hPa NW 18.8 km/h 33.8 km/h 73.4% 0 mm W/m2
12:54 12.8 °C 8.2 °C 1016.8 hPa NW 18 km/h 35.4 km/h 73.4% 0 mm W/m2
12:59 13 °C 8.4 °C 1016.8 hPa NW 20 km/h 32.2 km/h 73.4% 0 mm W/m2
13:04 13.3 °C 8.6 °C 1016.8 hPa NW 20.8 km/h 30.6 km/h 72.9% 0 mm W/m2
13:09 13.4 °C 8.6 °C 1016.8 hPa NW 24.1 km/h 37 km/h 72.3% 0 mm W/m2
13:14 13.4 °C 8.6 °C 1016.8 hPa NW 23.3 km/h 37 km/h 72.3% 0 mm W/m2
13:19 13.5 °C 8.6 °C 1016.8 hPa NW 20.9 km/h 37 km/h 72.4% 0 mm W/m2
13:24 13.4 °C 8.4 °C 1016.8 hPa NW 24.8 km/h 40.2 km/h 71.8% 0 mm W/m2
13:29 13.2 °C 8.6 °C 1016.8 hPa NW 23.8 km/h 40.2 km/h 73.7% 0 mm W/m2
13:34 13.1 °C 8.8 °C 1016.5 hPa NW 24.6 km/h 35.4 km/h 75.1% 0 mm W/m2
13:39 13.1 °C 8.8 °C 1016.8 hPa NW 25.4 km/h 40.2 km/h 75% 0 mm W/m2
13:44 13.1 °C 8.8 °C 1016.8 hPa NW 24.6 km/h 43.5 km/h 75.2% 0 mm W/m2
13:49 13.2 °C 9 °C 1016.5 hPa WNW 19.2 km/h 40.2 km/h 75.6% 0 mm W/m2
13:54 13.4 °C 9.4 °C 1016.8 hPa NW 17.1 km/h 43.5 km/h 76.4% 0 mm W/m2
13:59 13.4 °C 9.4 °C 1016.5 hPa NW 19.2 km/h 29 km/h 76.3% 0 mm W/m2
14:04 12.9 °C 9.2 °C 1016.5 hPa NW 21.4 km/h 35.4 km/h 77.8% 0 mm W/m2
14:09 13.2 °C 9.5 °C 1016.5 hPa NW 15.8 km/h 30.6 km/h 78.3% 0 mm W/m2
14:14 13.7 °C 9.8 °C 1016.5 hPa WNW 15.1 km/h 35.4 km/h 77.3% 0 mm W/m2
14:19 14.1 °C 9.6 °C 1016.5 hPa WNW 15.3 km/h 24.1 km/h 74.4% 0 mm W/m2
14:24 14.5 °C 9.9 °C 1016.1 hPa NW 19 km/h 37 km/h 74% 0 mm W/m2
14:29 14.8 °C 10.2 °C 1016.1 hPa WNW 20.4 km/h 40.2 km/h 73.6% 0 mm W/m2
14:34 14.9 °C 10.3 °C 1016.1 hPa NW 17.5 km/h 40.2 km/h 74% 0 mm W/m2
14:39 14.9 °C 10.5 °C 1016.5 hPa NW 19 km/h 38.6 km/h 75.1% 0 mm W/m2
14:44 14.8 °C 10.5 °C 1016.5 hPa NW 18.5 km/h 38.6 km/h 75.5% 0 mm W/m2
14:49 14.7 °C 10.4 °C 1016.5 hPa WNW 20 km/h 30.6 km/h 75.9% 0 mm W/m2
14:54 14.3 °C 10.1 °C 1016.8 hPa WNW 17.1 km/h 33.8 km/h 75.7% 0 mm W/m2
14:59 14.4 °C 10.4 °C 1016.8 hPa NW 17.1 km/h 27.4 km/h 76.8% 0 mm W/m2
15:04 15.6 °C 11.2 °C 1016.5 hPa NNW 17.1 km/h 32.2 km/h 75% 0 mm W/m2
15:09 15.6 °C 11.2 °C 1016.5 hPa NW 15.9 km/h 29 km/h 74.6% 0 mm W/m2
15:14 15.4 °C 11 °C 1016.8 hPa NW 19.5 km/h 32.2 km/h 74.9% 0 mm W/m2
15:19 15.2 °C 11 °C 1016.8 hPa NW 16.9 km/h 29 km/h 76.1% 0 mm W/m2
15:24 14.9 °C 10.9 °C 1016.8 hPa NW 18.2 km/h 27.4 km/h 76.8% 0 mm W/m2
15:29 14.8 °C 11 °C 1016.8 hPa NW 17.7 km/h 29 km/h 78% 0 mm W/m2
15:34 14.8 °C 11.1 °C 1016.5 hPa NW 16.3 km/h 27.4 km/h 78.7% 0 mm W/m2
15:39 14.9 °C 11.1 °C 1016.5 hPa NW 18.3 km/h 27.4 km/h 77.8% 0 mm W/m2
15:44 14.8 °C 11.2 °C 1016.8 hPa NW 14.2 km/h 25.7 km/h 78.6% 0 mm W/m2
15:49 14.8 °C 11.2 °C 1016.8 hPa WNW 11.7 km/h 25.7 km/h 79% 0 mm W/m2
15:54 14.9 °C 11.3 °C 1016.1 hPa WNW 13.5 km/h 25.7 km/h 78.5% 0 mm W/m2
15:59 15.3 °C 11.3 °C 1016.1 hPa NW 15.6 km/h 24.1 km/h 77.3% 0 mm W/m2
16:04 15.5 °C 11.3 °C 1016.1 hPa NW 15.3 km/h 25.7 km/h 76.3% 0 mm W/m2
16:09 15.6 °C 11.3 °C 1016.1 hPa WNW 17.2 km/h 30.6 km/h 75.7% 0 mm W/m2
16:14 15.4 °C 11.4 °C 1016.1 hPa WNW 18 km/h 25.7 km/h 76.8% 0 mm W/m2
16:19 15.3 °C 11.4 °C 1016.1 hPa WNW 19 km/h 30.6 km/h 77.3% 0 mm W/m2
16:24 15.2 °C 11.3 °C 1016.1 hPa WNW 15.3 km/h 30.6 km/h 77.8% 0 mm W/m2
16:29 15.2 °C 11.6 °C 1016.1 hPa NW 10.5 km/h 24.1 km/h 78.8% 0 mm W/m2
16:34 15.3 °C 11.4 °C 1016.1 hPa WNW 15.8 km/h 27.4 km/h 77.5% 0 mm W/m2
16:39 15.4 °C 11.4 °C 1016.1 hPa NW 15.8 km/h 25.7 km/h 77.2% 0 mm W/m2
16:44 15.4 °C 11.4 °C 1016.1 hPa NW 13.7 km/h 27.4 km/h 77.4% 0 mm W/m2
16:49 15.3 °C 11.3 °C 1016.1 hPa NW 16.6 km/h 25.7 km/h 77.1% 0 mm W/m2
16:54 15.2 °C 11.4 °C 1016.1 hPa NW 12.9 km/h 22.5 km/h 78.1% 0 mm W/m2
16:59 15.3 °C 11.7 °C 1016.5 hPa NW 12.2 km/h 25.7 km/h 78.8% 0 mm W/m2
17:04 15.3 °C 11.7 °C 1016.5 hPa NW 14.2 km/h 20.9 km/h 79% 0 mm W/m2
17:09 15.2 °C 11.6 °C 1016.5 hPa NW 15 km/h 25.7 km/h 79% 0 mm W/m2
17:14 15.2 °C 11.7 °C 1016.8 hPa NW 16.9 km/h 25.7 km/h 79.4% 0 mm W/m2
17:19 15.1 °C 11.7 °C 1016.8 hPa NW 14.5 km/h 24.1 km/h 80.2% 0 mm W/m2
17:24 14.8 °C 11.7 °C 1016.8 hPa WNW 11.9 km/h 25.7 km/h 81.3% 0 mm W/m2
17:29 14.7 °C 11.8 °C 1016.8 hPa NW 13.5 km/h 24.1 km/h 82.5% 0 mm W/m2
17:34 14.6 °C 11.7 °C 1016.8 hPa NW 10.1 km/h 20.9 km/h 83.3% 0 mm W/m2
17:39 14.4 °C 11.8 °C 1016.8 hPa NW 9.5 km/h 24.1 km/h 84% 0 mm W/m2
17:44 14.4 °C 11.9 °C 1016.8 hPa NW 10.1 km/h 16.1 km/h 85% 0 mm W/m2
17:49 14.3 °C 11.8 °C 1016.8 hPa NW 13.4 km/h 20.9 km/h 85.1% 0 mm W/m2
17:54 14.2 °C 11.9 °C 1016.8 hPa NW 10.5 km/h 20.9 km/h 86% 0 mm W/m2
17:59 14.2 °C 11.9 °C 1016.8 hPa NW 7.6 km/h 20.9 km/h 86.3% 0 mm W/m2
18:04 14.2 °C 12.1 °C 1017.2 hPa NW 12.1 km/h 20.9 km/h 87% 0 mm W/m2
18:09 14.1 °C 12 °C 1017.2 hPa NW 13.5 km/h 27.4 km/h 87.2% 0 mm W/m2
18:14 14 °C 12 °C 1017.5 hPa NW 11.3 km/h 27.4 km/h 87.8% 0 mm W/m2
18:19 14 °C 12 °C 1017.5 hPa NW 9.2 km/h 27.4 km/h 88% 0 mm W/m2
18:24 13.9 °C 11.9 °C 1017.5 hPa WNW 13.7 km/h 27.4 km/h 87.6% 0 mm W/m2
18:29 13.9 °C 11.8 °C 1017.8 hPa WNW 11.3 km/h 25.7 km/h 87.1% 0 mm W/m2
18:34 13.9 °C 11.8 °C 1017.8 hPa NW 12.2 km/h 19.3 km/h 87.7% 0 mm W/m2
18:39 13.9 °C 11.9 °C 1017.8 hPa WNW 6.3 km/h 25.7 km/h 88% 0 mm W/m2
18:44 13.8 °C 11.9 °C 1017.8 hPa WNW 9.7 km/h 20.9 km/h 88.7% 0 mm W/m2
18:49 13.7 °C 12.1 °C 1017.8 hPa NW 14.8 km/h 20.9 km/h 89.7% 0 mm W/m2
18:54 13.6 °C 12.2 °C 1017.8 hPa NW 9.2 km/h 20.9 km/h 90.7% 0 mm W/m2
18:59 13.6 °C 12.2 °C 1017.8 hPa NW 14.2 km/h 20.9 km/h 91.8% 0 mm W/m2
19:04 13.4 °C 12.1 °C 1017.8 hPa NW 11.3 km/h 20.9 km/h 92% 0 mm W/m2
19:09 13.4 °C 12.1 °C 1018.2 hPa NW 10.8 km/h 20.9 km/h 92% 0 mm W/m2
19:14 13.3 °C 12.2 °C 1017.8 hPa NW 13 km/h 20.9 km/h 92.7% 0.25 mm W/m2
19:19 13.3 °C 12.2 °C 1017.8 hPa WNW 9.7 km/h 19.3 km/h 93% 0.25 mm W/m2
19:24 13.2 °C 12.1 °C 1017.8 hPa NW 10.1 km/h 19.3 km/h 93% 0.25 mm W/m2
19:29 13.2 °C 12.1 °C 1017.8 hPa NW 8.2 km/h 19.3 km/h 93% 0.25 mm W/m2
19:34 13.1 °C 12.1 °C 1018.2 hPa WNW 10.9 km/h 19.3 km/h 93.6% 0.25 mm W/m2
19:39 13 °C 12.1 °C 1018.2 hPa NW 11.9 km/h 19.3 km/h 94% 0.25 mm W/m2
19:44 13 °C 12.1 °C 1017.8 hPa NW 13.5 km/h 22.5 km/h 94% 0.25 mm W/m2
19:49 13 °C 12.1 °C 1017.8 hPa NW 11.9 km/h 20.9 km/h 94% 0.25 mm W/m2
19:54 12.9 °C 12.1 °C 1018.2 hPa NW 11.9 km/h 22.5 km/h 94% 0.25 mm W/m2
19:59 12.9 °C 12.1 °C 1018.5 hPa NNW 12.9 km/h 20.9 km/h 94% 0.25 mm W/m2
20:04 13 °C 12.1 °C 1018.2 hPa NW 10.3 km/h 19.3 km/h 94% 0.25 mm W/m2
20:09 12.9 °C 12 °C 1017.8 hPa NW 6.3 km/h 20.9 km/h 94% 0.25 mm W/m2
20:14 12.9 °C 12 °C 1017.8 hPa NW 5.8 km/h 11.3 km/h 94% 0.25 mm W/m2
20:19 12.9 °C 12 °C 1018.2 hPa NW 6.9 km/h 14.5 km/h 94% 0 mm W/m2
20:24 12.9 °C 12.1 °C 1018.2 hPa NW 7.9 km/h 12.9 km/h 94.3% 0 mm W/m2
20:29 12.9 °C 12.1 °C 1018.5 hPa NW 7.1 km/h 14.5 km/h 95% 0 mm W/m2
20:34 12.9 °C 12.1 °C 1018.5 hPa NW 5.3 km/h 11.3 km/h 95% 0.25 mm W/m2
20:39 12.9 °C 12.1 °C 1018.8 hPa NW 8 km/h 14.5 km/h 95% 0.25 mm W/m2
20:44 12.9 °C 12.1 °C 1018.5 hPa NW 9 km/h 12.9 km/h 95% 0.25 mm W/m2
20:49 12.9 °C 12.1 °C 1018.2 hPa NW 8.9 km/h 16.1 km/h 95% 0.25 mm W/m2
20:54 12.9 °C 12.1 °C 1018.8 hPa NW 6.1 km/h 16.1 km/h 95% 0.25 mm W/m2
20:59 12.9 °C 12.1 °C 1018.8 hPa NW 11.7 km/h 19.3 km/h 95% 0.25 mm W/m2
21:04 12.8 °C 12.1 °C 1018.8 hPa NW 14.2 km/h 20.9 km/h 95% 0.25 mm W/m2
21:09 12.8 °C 12 °C 1018.8 hPa NW 10.9 km/h 17.7 km/h 95% 0.25 mm W/m2
21:14 12.8 °C 12 °C 1018.5 hPa NW 11.3 km/h 20.9 km/h 95% 0.25 mm W/m2
21:19 12.8 °C 12.1 °C 1018.5 hPa NW 10 km/h 17.7 km/h 95% 0.25 mm W/m2
21:24 12.8 °C 12.2 °C 1018.5 hPa NW 7.7 km/h 12.9 km/h 95.6% 0.25 mm W/m2
21:29 12.9 °C 12.2 °C 1018.5 hPa NW 10 km/h 17.7 km/h 95.6% 0.25 mm W/m2
21:34 12.8 °C 12.3 °C 1018.5 hPa NW 10.6 km/h 19.3 km/h 96% 0.25 mm W/m2
21:39 12.9 °C 12.3 °C 1018.8 hPa NW 11.3 km/h 19.3 km/h 96% 0.25 mm W/m2
21:44 12.8 °C 12.2 °C 1018.5 hPa NW 8.9 km/h 14.5 km/h 96% 0.25 mm W/m2
21:49 12.8 °C 12.2 °C 1018.5 hPa NW 9.2 km/h 19.3 km/h 96% 0.25 mm W/m2
21:54 12.8 °C 12.2 °C 1018.5 hPa NW 11.3 km/h 17.7 km/h 96% 0.25 mm W/m2
21:59 12.8 °C 12.2 °C 1018.8 hPa NW 8.4 km/h 14.5 km/h 96% 0.25 mm W/m2
22:04 12.8 °C 12.2 °C 1018.8 hPa NW 9.8 km/h 17.7 km/h 96% 0.25 mm W/m2
22:09 12.8 °C 12.2 °C 1018.8 hPa NW 7.4 km/h 14.5 km/h 96% 0.25 mm W/m2
22:14 12.8 °C 12.2 °C 1018.8 hPa NW 4.8 km/h 17.7 km/h 96% 0.25 mm W/m2
22:19 12.8 °C 12.2 °C 1018.8 hPa NW 8.2 km/h 12.9 km/h 96% 0.25 mm W/m2
22:24 12.8 °C 12.2 °C 1018.8 hPa NW 9.8 km/h 16.1 km/h 96% 0.25 mm W/m2
22:29 12.8 °C 12.2 °C 1018.8 hPa NNW 7.1 km/h 14.5 km/h 96% 0.25 mm W/m2
22:34 12.9 °C 12.3 °C 1018.8 hPa NW 7.6 km/h 16.1 km/h 96% 0.25 mm W/m2
22:39 12.9 °C 12.3 °C 1018.8 hPa NW 7.7 km/h 12.9 km/h 96% 0.25 mm W/m2
22:44 12.9 °C 12.3 °C 1018.8 hPa NW 7.9 km/h 14.5 km/h 96% 0.25 mm W/m2
22:49 12.9 °C 12.3 °C 1018.8 hPa NW 6.6 km/h 12.9 km/h 96% 0.25 mm W/m2
22:54 13 °C 12.4 °C 1018.8 hPa NW 6 km/h 14.5 km/h 96% 0.25 mm W/m2
22:59 13.1 °C 12.4 °C 1018.8 hPa NW 7.7 km/h 14.5 km/h 96% 0.25 mm W/m2
23:04 13.1 °C 12.5 °C 1018.8 hPa NW 7.2 km/h 11.3 km/h 96% 0.25 mm W/m2
23:09 13.1 °C 12.6 °C 1018.8 hPa NW 8.5 km/h 16.1 km/h 96.5% 0.25 mm W/m2
23:14 13.1 °C 12.6 °C 1018.8 hPa NW 7.7 km/h 16.1 km/h 97% 0.25 mm W/m2
23:19 13.1 °C 12.6 °C 1018.8 hPa NW 5.6 km/h 16.1 km/h 97% 0.25 mm W/m2
23:24 13.2 °C 12.7 °C 1018.8 hPa NW 2.6 km/h 8 km/h 97% 0.25 mm W/m2
23:29 13.1 °C 12.6 °C 1018.8 hPa WNW 3.5 km/h 6.4 km/h 96.8% 0.25 mm W/m2
23:34 13.2 °C 12.7 °C 1018.8 hPa NW 3.5 km/h 8 km/h 97% 0.25 mm W/m2
23:39 13.2 °C 12.7 °C 1018.8 hPa NW 5.8 km/h 12.9 km/h 97% 0.25 mm W/m2
23:44 13.2 °C 12.7 °C 1018.8 hPa NW 11.1 km/h 17.7 km/h 97% 0 mm W/m2
23:49 13.2 °C 12.7 °C 1018.8 hPa NW 9.8 km/h 17.7 km/h 97% 0 mm W/m2
23:54 13.2 °C 12.7 °C 1018.8 hPa NW 5.5 km/h 17.7 km/h 97% 0 mm W/m2
23:59 13.2 °C 12.7 °C 1018.8 hPa NW 8.2 km/h 17.7 km/h 97% 0.25 mm W/m2
Lake Worth, USA
Compliments of Weather Underground - 4 mb